Pagina principale
METAR-TAF:

METAR-TAF

Aeroporti :

Aeroporto di Firenze-Peretola

Firenze, Italia

latitudine: 43-48N, longitudine: 011-12E, altezza: 40 m

Osservazione

Il bollettino è stato emesso 44 minuti fa, alle 02:20 UTC
Vento 6 kt da direzioni variabili
Temperature 7°C
Umidità 61%
Pressione 1011 hPa
Visibilità 10 km o più
Nuvoloso ad un'altezza di 7500 ft

METAR: LIRQ 140220Z VRB06KT 9999 BKN075 07/M00 Q1011

Ora: 04:04 (03:04 UTC)

Previsione

Il bollettino è stato emesso 4 ore e 4 minuti fa, alle 23:00 UTC
Previsione valida dal 14 alle 00 UTC al 14 alle 24 UTC
Vento 10 kt da nord/nord-est
Visibilità 10 km o più
Nubi sparse ad un'altezza di 2000 ft
Nuvoloso ad un'altezza di 6000 ft
Temporaneamente
dal 14 alle 03 UTC al 14 alle 09 UTC
pioggia

TAF: LIRQ 132300Z 1400/1424 02010KT 9999 SCT020 BKN060 TEMPO 1403/1409 RA

Osservazioni e previsioni meteorologiche di più di 4000 aeroporti (messaggi METAR e TAF).

Le stazioni disponibili sono rappresentate dai dischi gialli e rossi sulla carta.

Puntare il mouse per vedere il nome della stazione.

Clicca sopra per visualizzare le osservazioni e previsioni meteorologiche.

Per cambiare la mappa : fare clic sui pulsanti verdi con una croce nera per ingrandire, il pulsante verde con un trattino per diminuire, o sulla freccia verde per le mappe adiacenti.


METAR-TAF: